createdAt,value
2023-02-16T00:01:29.164Z,15.63
2023-02-16T00:03:56.742Z,16.80
2023-02-16T00:06:27.798Z,18.55
2023-02-16T00:08:56.222Z,20.02
2023-02-16T00:11:52.808Z,15.57
2023-02-16T00:14:26.239Z,16.60
2023-02-16T00:16:54.977Z,16.35
2023-02-16T00:19:28.470Z,16.45
2023-02-16T00:21:57.613Z,15.20
2023-02-16T00:24:26.742Z,14.07
2023-02-16T00:26:54.447Z,15.55
2023-02-16T00:29:24.881Z,14.90
2023-02-16T00:31:52.579Z,14.13
2023-02-16T00:34:28.100Z,15.05
2023-02-16T00:36:55.831Z,14.18
2023-02-16T00:39:25.068Z,15.35
2023-02-16T00:41:56.303Z,13.85
2023-02-16T00:44:33.572Z,14.05
2023-02-16T00:47:15.399Z,14.35
2023-02-16T00:49:42.287Z,13.70
2023-02-16T00:54:39.081Z,13.27
2023-02-16T00:59:32.622Z,13.45
2023-02-16T01:04:26.272Z,13.18
2023-02-16T01:07:11.691Z,14.57
2023-02-16T01:09:57.238Z,14.55
2023-02-16T01:12:24.282Z,14.45
2023-02-16T01:14:54.318Z,16.33
2023-02-16T01:17:21.709Z,15.98
2023-02-16T01:19:48.631Z,16.65
2023-02-16T01:22:15.997Z,16.20
2023-02-16T01:24:42.896Z,18.37
2023-02-16T01:27:12.750Z,31.00
2023-02-16T01:29:39.802Z,23.83
2023-02-16T01:32:06.715Z,16.83
2023-02-16T01:34:33.696Z,18.33
2023-02-16T01:39:27.243Z,37.13
2023-02-16T01:42:06.212Z,38.30
2023-02-16T01:44:34.996Z,27.00
2023-02-16T01:47:07.443Z,38.63
2023-02-16T01:49:34.340Z,40.40
2023-02-16T01:52:11.471Z,31.62
2023-02-16T01:54:40.780Z,27.37
2023-02-16T01:57:10.609Z,18.92
2023-02-16T01:59:49.628Z,18.42
2023-02-16T02:02:22.942Z,19.62
2023-02-16T02:05:19.571Z,17.48
2023-02-16T02:08:00.055Z,22.67
2023-02-16T02:10:52.904Z,19.65
2023-02-16T02:13:37.072Z,18.80
2023-02-16T02:16:05.567Z,17.30
2023-02-16T02:18:32.576Z,17.65
2023-02-16T02:21:55.760Z,14.38
2023-02-16T02:24:43.932Z,19.10
2023-02-16T02:27:19.560Z,21.80
2023-02-16T02:30:20.599Z,22.62
2023-02-16T02:33:29.668Z,26.52
2023-02-16T02:36:07.848Z,26.05
2023-02-16T02:38:52.788Z,24.83
2023-02-16T02:41:54.415Z,25.00
2023-02-16T02:44:23.041Z,24.90
2023-02-16T02:46:50.259Z,24.58
2023-02-16T02:49:17.188Z,24.75
2023-02-16T02:51:44.091Z,23.12
2023-02-16T02:54:53.633Z,24.65
2023-02-16T02:58:00.252Z,22.40
2023-02-16T03:00:44.101Z,23.87
2023-02-16T03:03:23.138Z,23.65
2023-02-16T03:05:55.925Z,23.20
2023-02-16T03:08:25.332Z,28.87
2023-02-16T03:11:17.272Z,33.10
2023-02-16T03:13:47.898Z,30.02
2023-02-16T03:16:19.584Z,32.10
2023-02-16T03:19:05.913Z,27.83
2023-02-16T03:21:52.431Z,22.23
2023-02-16T03:24:46.729Z,28.15
2023-02-16T03:27:34.502Z,35.00
2023-02-16T03:30:02.526Z,28.67
2023-02-16T03:32:29.472Z,21.33
2023-02-16T03:34:56.450Z,20.12
2023-02-16T03:37:23.474Z,17.92
2023-02-16T03:40:09.087Z,17.75
2023-02-16T03:42:35.936Z,17.10
2023-02-16T03:47:29.506Z,17.77
2023-02-16T03:52:23.030Z,15.77
2023-02-16T03:57:17.168Z,16.37
2023-02-16T03:59:44.016Z,17.83
2023-02-16T04:04:37.666Z,16.67
2023-02-16T04:07:04.550Z,20.27
2023-02-16T04:12:16.482Z,18.52
2023-02-16T04:14:43.845Z,23.50
2023-02-16T04:17:10.801Z,25.80
2023-02-16T04:19:37.698Z,30.45
2023-02-16T04:22:04.569Z,55.65
2023-02-16T04:26:58.123Z,80.38
2023-02-16T04:29:25.006Z,74.53
2023-02-16T04:31:52.027Z,54.58
2023-02-16T04:34:19.056Z,40.15
2023-02-16T04:36:45.919Z,30.67
2023-02-16T04:41:39.486Z,20.70
2023-02-16T04:46:33.057Z,19.52
2023-02-16T04:49:00.025Z,24.30
2023-02-16T04:51:26.950Z,31.20
2023-02-16T04:53:53.804Z,37.92
2023-02-16T04:58:47.379Z,43.30
2023-02-16T05:01:25.819Z,47.53
2023-02-16T05:03:52.728Z,45.25
2023-02-16T05:08:47.022Z,40.12
2023-02-16T05:11:32.369Z,36.53
2023-02-16T05:14:22.849Z,38.47
2023-02-16T05:16:49.765Z,41.10
2023-02-16T05:19:16.739Z,51.70
2023-02-16T05:21:43.616Z,52.05
2023-02-16T05:26:42.283Z,49.05
2023-02-16T05:29:09.229Z,49.17
2023-02-16T05:31:36.189Z,52.30
2023-02-16T05:34:03.172Z,29.80
2023-02-16T05:36:30.068Z,26.45
2023-02-16T05:38:57.062Z,47.22
2023-02-16T05:41:23.968Z,42.53
2023-02-16T05:43:58.906Z,44.40
2023-02-16T05:46:26.660Z,37.90
2023-02-16T05:48:53.689Z,37.85
2023-02-16T05:51:21.258Z,39.38
2023-02-16T05:53:48.125Z,30.73
2023-02-16T05:56:15.392Z,29.98
2023-02-16T05:58:42.428Z,26.75
2023-02-16T06:01:09.288Z,31.75
2023-02-16T06:06:04.858Z,15.05
2023-02-16T06:08:32.678Z,18.00
2023-02-16T06:10:59.982Z,17.48
2023-02-16T06:13:26.905Z,17.40
2023-02-16T06:15:55.633Z,18.85
2023-02-16T06:18:24.006Z,21.48
2023-02-16T06:20:51.014Z,36.85
2023-02-16T06:23:18.247Z,43.95
2023-02-16T06:25:50.536Z,51.40
2023-02-16T06:28:17.463Z,30.65
2023-02-16T06:30:44.299Z,30.95
2023-02-16T06:35:37.913Z,23.87
2023-02-16T06:40:31.455Z,24.48
2023-02-16T06:45:24.981Z,34.97
2023-02-16T06:50:19.270Z,49.60
2023-02-16T06:52:46.163Z,65.05
2023-02-16T06:55:13.054Z,61.30
2023-02-16T06:57:39.908Z,65.20
2023-02-16T07:02:35.830Z,41.10
2023-02-16T07:05:03.436Z,37.47
2023-02-16T07:07:31.427Z,35.15
2023-02-16T07:09:58.452Z,28.35
2023-02-16T07:12:25.311Z,16.48
2023-02-16T07:17:18.849Z,17.20
2023-02-16T07:22:12.740Z,16.35
2023-02-16T07:24:39.620Z,16.90
2023-02-16T07:27:07.059Z,15.35
2023-02-16T07:29:33.901Z,14.38
2023-02-16T07:34:28.522Z,14.45
2023-02-16T07:36:55.375Z,16.50
2023-02-16T07:41:49.017Z,15.73
2023-02-16T07:46:42.535Z,14.68
2023-02-16T07:49:09.484Z,15.75
2023-02-16T07:51:36.358Z,15.95
2023-02-16T07:54:03.288Z,14.87
2023-02-16T07:56:32.103Z,14.70
2023-02-16T07:59:00.466Z,16.95
2023-02-16T08:01:28.476Z,17.02
2023-02-16T08:03:55.376Z,17.20
2023-02-16T08:06:22.436Z,18.12
2023-02-16T08:08:49.923Z,16.95
2023-02-16T08:11:24.321Z,16.95
2023-02-16T08:13:51.980Z,19.33
2023-02-16T08:16:21.464Z,17.77
2023-02-16T08:18:48.596Z,17.23
2023-02-16T08:21:18.285Z,18.62
2023-02-16T08:23:49.607Z,19.73
2023-02-16T08:26:17.611Z,18.70
2023-02-16T08:28:50.236Z,18.40
2023-02-16T08:31:20.882Z,19.23
2023-02-16T08:33:48.276Z,18.60
2023-02-16T08:36:23.670Z,18.85
2023-02-16T08:38:52.414Z,18.25
2023-02-16T08:41:20.340Z,19.73
2023-02-16T08:43:48.341Z,19.15
2023-02-16T08:46:16.475Z,18.45
2023-02-16T08:48:45.382Z,19.73
2023-02-16T08:51:19.988Z,19.40
2023-02-16T08:53:47.113Z,19.35
2023-02-16T08:56:15.026Z,19.48
2023-02-16T08:58:42.486Z,19.08
2023-02-16T09:01:10.891Z,18.35
2023-02-16T09:03:41.353Z,19.42
2023-02-16T09:06:09.077Z,18.70
2023-02-16T09:08:39.129Z,19.67
2023-02-16T09:11:08.901Z,17.80
2023-02-16T09:13:36.496Z,18.42
2023-02-16T09:16:08.204Z,18.05
2023-02-16T09:18:36.945Z,17.67
2023-02-16T09:21:12.827Z,18.92
2023-02-16T09:23:41.393Z,18.00
2023-02-16T09:26:10.560Z,17.70
2023-02-16T09:28:38.388Z,18.30
2023-02-16T09:31:27.467Z,17.80
2023-02-16T09:33:57.093Z,16.92
2023-02-16T09:36:24.610Z,18.50
2023-02-16T09:38:51.640Z,17.45
2023-02-16T09:41:37.780Z,18.02
2023-02-16T09:44:21.052Z,16.12
2023-02-16T09:46:49.136Z,17.83
2023-02-16T09:49:30.478Z,17.33
2023-02-16T09:52:05.789Z,16.45
2023-02-16T09:54:40.693Z,17.85
2023-02-16T09:57:16.975Z,16.75
2023-02-16T10:00:04.623Z,16.12
2023-02-16T10:02:45.952Z,16.85
2023-02-16T10:05:22.009Z,16.52
2023-02-16T10:14:32.774Z,17.40
2023-02-16T10:23:52.888Z,17.37
2023-02-16T10:26:28.863Z,16.77
2023-02-16T10:32:30.770Z,15.73
2023-02-16T10:35:01.298Z,17.30
2023-02-16T10:41:34.511Z,17.75
2023-02-16T10:44:14.036Z,15.93
2023-02-16T10:46:43.666Z,16.62
2023-02-16T10:52:54.670Z,14.80
2023-02-16T10:55:22.084Z,16.17
2023-02-16T11:04:37.810Z,14.85
2023-02-16T11:14:23.846Z,14.93
2023-02-16T11:17:08.770Z,15.40
2023-02-16T11:19:35.707Z,15.30
2023-02-16T11:22:02.817Z,15.35
2023-02-16T11:24:32.557Z,15.73
2023-02-16T11:27:03.641Z,15.35
2023-02-16T11:29:31.830Z,16.40
2023-02-16T11:32:02.203Z,14.82
2023-02-16T11:34:34.182Z,15.85
2023-02-16T11:37:05.624Z,16.52
2023-02-16T11:39:37.804Z,15.23
2023-02-16T11:42:22.446Z,16.20
2023-02-16T11:44:53.882Z,14.38
2023-02-16T11:51:32.046Z,14.07
2023-02-16T11:54:05.474Z,14.98
2023-02-16T11:56:34.509Z,15.93
2023-02-16T12:02:40.789Z,14.68
2023-02-16T12:05:26.298Z,14.82
2023-02-16T12:11:46.090Z,16.05
2023-02-16T12:14:57.245Z,16.58
2023-02-16T12:24:24.840Z,15.52
2023-02-16T12:26:55.748Z,16.77
2023-02-16T12:29:45.015Z,16.10
2023-02-16T12:32:20.768Z,16.23
2023-02-16T12:34:57.797Z,15.70
2023-02-16T12:41:36.488Z,15.65
2023-02-16T12:44:08.556Z,16.77
2023-02-16T12:46:39.720Z,16.62
2023-02-16T12:53:17.566Z,16.10
2023-02-16T12:55:49.212Z,15.63
2023-02-16T13:02:25.276Z,16.58
2023-02-16T13:05:12.034Z,16.65
2023-02-16T13:11:46.029Z,16.90
2023-02-16T13:14:31.037Z,17.05
2023-02-16T13:17:02.169Z,17.30
2023-02-16T13:19:29.242Z,16.83
2023-02-16T13:22:11.520Z,15.77
2023-02-16T13:24:52.945Z,15.45
2023-02-16T13:35:00.381Z,15.52
2023-02-16T13:41:36.616Z,17.17
2023-02-16T13:44:16.002Z,16.65
2023-02-16T13:46:50.335Z,16.58
2023-02-16T13:52:45.622Z,17.05
2023-02-16T13:55:39.505Z,17.05
2023-02-16T14:04:23.862Z,15.50
2023-02-16T14:07:13.929Z,16.77
2023-02-16T14:09:41.121Z,16.35
2023-02-16T14:12:31.937Z,16.23
2023-02-16T14:15:05.174Z,16.20
2023-02-16T14:21:39.354Z,16.17
2023-02-16T14:24:10.957Z,15.07
2023-02-16T14:27:15.940Z,16.87
2023-02-16T14:30:14.806Z,16.12
2023-02-16T14:32:47.711Z,17.77
2023-02-16T14:35:29.495Z,17.02
2023-02-16T14:41:39.038Z,16.33
2023-02-16T14:44:06.171Z,16.45
2023-02-16T14:46:50.999Z,17.60
2023-02-16T14:53:17.970Z,17.95
2023-02-16T14:56:10.039Z,18.85
2023-02-16T15:05:21.777Z,21.00
2023-02-16T15:11:58.544Z,21.50
2023-02-16T15:14:26.160Z,20.67
2023-02-16T15:16:54.129Z,22.10
2023-02-16T15:23:04.195Z,21.90
2023-02-16T15:25:39.622Z,22.73
2023-02-16T15:28:12.263Z,22.80
2023-02-16T15:30:47.435Z,22.92
2023-02-16T15:33:23.667Z,21.95
2023-02-16T15:36:01.921Z,23.80
2023-02-16T15:42:21.023Z,22.67
2023-02-16T15:44:48.392Z,22.10
2023-02-16T15:51:34.111Z,23.05
2023-02-16T15:54:06.749Z,23.27
2023-02-16T15:56:38.457Z,22.95
2023-02-16T16:02:29.126Z,22.42
2023-02-16T16:04:58.801Z,23.00
2023-02-16T16:11:37.967Z,21.85
2023-02-16T16:14:06.301Z,22.17
2023-02-16T16:16:34.053Z,24.08
2023-02-16T16:22:43.046Z,22.55
2023-02-16T16:25:35.453Z,22.73
2023-02-16T16:31:43.674Z,22.40
2023-02-16T16:34:15.888Z,23.45
2023-02-16T16:36:56.722Z,22.58
2023-02-16T16:39:31.796Z,23.25
2023-02-16T16:42:01.645Z,23.23
2023-02-16T16:44:42.729Z,24.50
2023-02-16T16:53:52.600Z,22.30
2023-02-16T16:56:20.586Z,24.48
2023-02-16T17:11:06.531Z,24.37
2023-02-16T17:13:33.429Z,25.95
2023-02-16T17:16:07.383Z,25.83
2023-02-16T17:21:50.696Z,25.20
2023-02-16T17:24:17.833Z,25.42
2023-02-16T17:26:44.714Z,25.23
2023-02-16T17:32:59.027Z,25.75
2023-02-16T17:35:28.211Z,26.65
2023-02-16T17:41:41.829Z,24.55
2023-02-16T17:44:08.683Z,23.62
2023-02-16T17:52:44.268Z,22.20
2023-02-16T17:55:12.362Z,23.50
2023-02-16T17:57:39.838Z,22.83
2023-02-16T18:00:09.411Z,24.05
2023-02-16T18:02:36.278Z,22.52
2023-02-16T18:14:08.482Z,23.73
2023-02-16T18:16:35.518Z,22.35
2023-02-16T18:29:33.121Z,23.98
2023-02-16T18:32:00.008Z,24.27
2023-02-16T18:34:26.936Z,24.80
2023-02-16T18:36:53.795Z,24.85
2023-02-16T18:42:42.986Z,24.48
2023-02-16T18:45:10.073Z,24.87
2023-02-16T18:54:09.974Z,25.30
2023-02-16T18:56:38.016Z,26.87
2023-02-16T18:59:04.911Z,27.33
2023-02-16T19:01:33.334Z,27.80
2023-02-16T19:04:01.320Z,27.00
2023-02-16T19:06:28.837Z,27.25
2023-02-16T19:15:12.666Z,30.37
2023-02-16T19:17:42.133Z,25.42
2023-02-16T19:20:12.352Z,27.98
2023-02-16T19:22:39.219Z,28.20
2023-02-16T19:27:36.157Z,27.80
2023-02-16T19:30:03.185Z,27.77
2023-02-16T19:32:32.791Z,29.05
2023-02-16T19:34:59.635Z,29.35
2023-02-16T19:41:28.779Z,28.38
2023-02-16T19:43:55.999Z,26.98
2023-02-16T19:46:23.793Z,28.27
2023-02-16T19:48:50.696Z,28.70
2023-02-16T19:51:18.033Z,27.70
2023-02-16T19:53:44.960Z,27.08
2023-02-16T19:56:13.924Z,26.42
2023-02-16T19:58:41.054Z,26.40
2023-02-16T20:01:19.167Z,25.95
2023-02-16T20:03:46.511Z,26.30
2023-02-16T20:06:31.551Z,25.55
2023-02-16T20:08:59.762Z,23.27
2023-02-16T20:11:28.814Z,24.30
2023-02-16T20:13:56.082Z,22.23
2023-02-16T20:16:24.012Z,23.05
2023-02-16T20:25:00.790Z,24.50
2023-02-16T20:27:28.682Z,23.58
2023-02-16T20:29:55.796Z,24.52
2023-02-16T20:32:26.681Z,23.73
2023-02-16T20:34:53.561Z,24.10
2023-02-16T20:41:29.350Z,25.65
2023-02-16T20:43:56.442Z,26.00
2023-02-16T20:46:24.053Z,26.70
2023-02-16T20:48:51.734Z,26.98
2023-02-16T20:51:19.421Z,27.50
2023-02-16T20:53:46.480Z,27.50
2023-02-16T20:56:20.668Z,25.98
2023-02-16T20:58:49.716Z,26.23
2023-02-16T21:01:27.751Z,25.17
2023-02-16T21:03:56.070Z,24.42
2023-02-16T21:06:23.158Z,25.12
2023-02-16T21:12:30.621Z,25.17
2023-02-16T21:21:38.736Z,20.65
2023-02-16T21:24:05.844Z,21.75
2023-02-16T21:26:32.747Z,21.98
2023-02-16T21:32:40.876Z,20.55
2023-02-16T21:35:07.854Z,20.35
2023-02-16T21:37:35.373Z,20.23
2023-02-16T21:40:20.961Z,19.98
2023-02-16T21:42:47.930Z,19.52
2023-02-16T21:45:14.805Z,19.60
2023-02-16T21:48:02.310Z,19.85
2023-02-16T21:50:30.146Z,20.00
2023-02-16T21:52:58.318Z,20.45
2023-02-16T21:55:43.942Z,19.10
2023-02-16T21:58:10.992Z,19.33
2023-02-16T22:00:38.863Z,20.52
2023-02-16T22:03:06.293Z,20.30
2023-02-16T22:05:34.561Z,19.35
2023-02-16T22:08:01.683Z,19.40
2023-02-16T22:10:28.908Z,20.58
2023-02-16T22:12:56.973Z,20.10
2023-02-16T22:15:26.052Z,19.92
2023-02-16T22:21:41.324Z,19.08
2023-02-16T22:24:08.875Z,19.00
2023-02-16T22:26:36.283Z,19.12
2023-02-16T22:32:43.891Z,20.17
2023-02-16T22:37:37.483Z,21.00
2023-02-16T22:40:04.593Z,18.35
2023-02-16T22:42:31.714Z,19.90
2023-02-16T22:44:58.538Z,20.85
2023-02-16T22:51:40.267Z,18.60
2023-02-16T22:54:07.488Z,17.50
2023-02-16T22:56:34.928Z,18.42
2023-02-16T22:59:02.040Z,20.77
2023-02-16T23:01:30.022Z,20.20
2023-02-16T23:03:58.794Z,20.27
2023-02-16T23:06:37.092Z,19.50
2023-02-16T23:09:06.656Z,22.15
2023-02-16T23:11:34.786Z,20.80
2023-02-16T23:14:02.138Z,19.73
2023-02-16T23:16:29.029Z,21.62
2023-02-16T23:22:36.614Z,19.90
2023-02-16T23:25:22.187Z,20.73
2023-02-16T23:34:04.530Z,20.50
2023-02-16T23:36:33.234Z,19.35
2023-02-16T23:39:01.246Z,21.02
2023-02-16T23:41:28.226Z,19.95
2023-02-16T23:43:56.529Z,20.88
2023-02-16T23:46:24.853Z,20.42
2023-02-16T23:48:51.713Z,20.45
2023-02-16T23:51:18.829Z,19.83
2023-02-16T23:53:45.734Z,19.30
2023-02-16T23:56:19.838Z,20.83
2023-02-16T23:58:47.244Z,19.42
